Startpagina
METAR-TAF:

METAR-TAF

Vliegvelden :

Internationale luchthaven Kunming Changshui

Kunming, China

breedte: 25-01N, lengte: 102-41E, hoogte: 1892 m

Actueel weer

Dit bericht is 55 minuten geleden gemaakt, om 17:00 UTC
Wind 6 kt uit het zuidzuidoosten, variërend tussen het oostzuidoosten en het zuiden
Temperatuur 19°C
Vochtigheid 64%
Druk 1018 hPa
Zicht 10 km of meer
geen wolken onder 1500 m en geen cumulonimbus

METAR: ZPPP 181700Z 15003MPS 120V180 CAVOK 19/12 Q1018 NOSIG

Tijdstip: 01:55 (17:55 UTC)

Verwachting

Dit bericht is 4 uur en het 50 minuten geleden gemaakt, om 13:05 UTC
Verwachting geldig van 18 om 18 UTC tot 19 om 18 UTC
Wind 8 kt uit het oostzuidoosten
Zicht 10 km of meer
Verspreide wolken op 2300 ft

TAF: ZPPP 181305Z 1818/1918 12004MPS 9999 SCT023 TX28/1908Z TN17/1823Z

Waarnemingen en weersverwachtingen van meer dan 4000 vliegvelden (METAR en TAF).

De beschikbare stations zijn de gele en rode punten op de kaart.

Ga met uw muis naar het station om de naam te zien.

Klik dan om waarnemingen en weersverwachtingen te zien.

kaart wijzigen: klik op de groene knoppen met een zwart kruis om in te zoomen, op de groene knop met een streepje om uit te zoomen of op de groene pijlen voor aangrenzende kaarten.


METAR-TAF: